Time;durP1;ratioP1;P1;durP2;ratioP2;P2;SDS_P1;SDS_P2;PMS_P1;PMS_P2;Temp;Humidity;BMP_temperature;BMP_pressure;BME280_temperature;BME280_humidity;BME280_pressure;Samples;Min_cycle;Max_cycle;Signal;HPM_P1;HPM_P2
2023/04/28 00:01:22;;;;;;;13.82;11.63;;;10.70;99.90;;;10.97;60.13;101184.56;5112621;28;20047;-69
2023/04/28 00:03:50;;;;;;;16.75;11.88;;;10.70;99.90;;;11.15;60.04;101192.44;5113231;28;20047;-69
2023/04/28 00:06:20;;;;;;;15.13;11.27;;;10.80;99.90;;;10.83;60.34;101186.31;5109110;28;20067;-69
2023/04/28 00:08:49;;;;;;;18.73;11.57;;;10.60;99.90;;;10.93;60.34;101185.44;5094343;28;20044;-69
2023/04/28 00:11:17;;;;;;;16.58;12.02;;;10.70;99.90;;;10.99;60.33;101176.59;5112012;28;20039;-69
2023/04/28 00:13:45;;;;;;;14.52;11.52;;;10.70;99.90;;;10.95;60.89;101177.50;5112421;28;20051;-68
2023/04/28 00:16:14;;;;;;;14.25;12.27;;;10.60;99.90;;;11.07;60.89;101167.75;5115769;28;20054;-69
2023/04/28 00:18:43;;;;;;;17.23;12.35;;;10.80;99.90;;;10.89;61.30;101170.44;5115869;28;20461;-69
2023/04/28 00:21:11;;;;;;;18.77;11.85;;;10.70;99.90;;;10.88;61.04;101166.91;5115742;28;20050;-69
2023/04/28 00:23:41;;;;;;;15.40;12.35;;;10.60;99.90;;;10.94;61.35;101146.63;5115763;28;20050;-69
2023/04/28 00:26:11;;;;;;;17.95;12.52;;;10.60;99.90;;;11.02;61.68;101143.06;5085720;28;20059;-69
2023/04/28 00:28:40;;;;;;;19.95;12.05;;;10.70;99.90;;;10.80;61.63;101139.56;5086128;28;20454;-69
2023/04/28 00:31:14;;;;;;;17.15;12.23;;;10.60;99.90;;;10.73;62.30;101136.94;5085322;28;20071;-69
2023/04/28 00:33:43;;;;;;;17.10;12.18;;;10.50;99.90;;;10.78;62.63;101137.84;5089649;28;20081;-69
2023/04/28 00:36:12;;;;;;;18.20;12.48;;;10.50;99.90;;;10.87;61.99;101135.16;5097676;28;20465;-69
2023/04/28 00:38:42;;;;;;;16.60;12.38;;;10.60;99.90;;;10.74;62.64;101125.50;5106422;28;20055;-69
2023/04/28 00:41:11;;;;;;;17.48;11.82;;;10.50;99.90;;;10.64;62.18;101113.16;5115636;28;20039;-69
2023/04/28 00:43:46;;;;;;;18.38;12.38;;;10.50;99.90;;;10.68;62.06;101099.03;5085166;28;20401;-68
2023/04/28 00:46:23;;;;;;;16.08;12.23;;;10.50;99.90;;;10.68;61.39;101069.94;5086590;28;20047;-69
2023/04/28 00:48:53;;;;;;;16.98;11.93;;;10.60;99.90;;;10.83;61.79;101112.25;5115221;28;20057;-69
2023/04/28 00:51:21;;;;;;;17.83;12.25;;;10.60;99.90;;;10.88;62.40;101107.81;5115510;28;20040;-68
2023/04/28 00:53:51;;;;;;;16.42;12.52;;;10.60;99.90;;;10.80;61.91;101102.53;5115346;28;20036;-69
2023/04/28 00:56:20;;;;;;;18.40;12.48;;;10.60;99.90;;;10.80;62.15;101101.66;5111467;28;20395;-69
2023/04/28 00:58:49;;;;;;;16.50;11.68;;;10.50;99.90;;;10.78;62.30;101092.84;5115129;28;20146;-69
2023/04/28 01:01:18;;;;;;;16.67;12.65;;;10.50;99.90;;;10.72;62.52;101079.63;5115254;28;20046;-69
2023/04/28 01:03:47;;;;;;;14.23;11.77;;;10.50;99.90;;;10.73;62.48;101087.56;5115002;28;20104;-69
2023/04/28 01:06:18;;;;;;;16.83;12.18;;;10.40;99.90;;;10.69;63.29;101075.22;5088526;28;20142;-69
2023/04/28 01:08:50;;;;;;;16.42;12.13;;;10.50;99.90;;;10.76;62.61;101062.88;5096600;28;20076;-69
2023/04/28 01:11:18;;;;;;;;;;;10.50;99.90;;;10.80;61.57;101056.69;5085267;28;20047;-68
2023/04/28 01:13:58;;;;;;;15.43;11.95;;;10.50;99.90;;;10.79;62.08;101058.44;5112300;28;19977;-69
2023/04/28 01:16:28;;;;;;;16.67;11.52;;;10.60;99.90;;;10.69;62.03;101032.00;5096427;28;20044;-69
2023/04/28 01:19:00;;;;;;;14.95;12.20;;;10.60;99.90;;;10.79;62.42;101054.91;5105206;28;20134;-69
2023/04/28 01:21:32;;;;;;;18.17;12.55;;;10.50;99.90;;;11.06;62.08;101052.19;5093063;28;20121;-68
2023/04/28 01:24:15;;;;;;;16.20;12.30;;;10.70;99.90;;;10.99;61.71;101031.94;5078176;28;20044;-68
2023/04/28 01:26:44;;;;;;;16.83;12.50;;;10.80;99.90;;;10.82;61.37;101050.50;5095424;28;20424;-69
2023/04/28 01:29:13;;;;;;;16.08;11.93;;;10.60;99.90;;;10.87;62.18;101035.50;5114266;28;20043;-69
2023/04/28 01:31:42;;;;;;;15.63;11.32;;;10.60;99.90;;;11.05;61.48;101036.31;5092715;28;20434;-69
2023/04/28 01:34:11;;;;;;;17.85;12.15;;;10.70;99.90;;;11.07;61.16;101027.47;5110280;28;20489;-69
2023/04/28 01:36:39;;;;;;;15.07;12.35;;;10.80;99.90;;;11.13;61.46;101008.91;5095537;28;20107;-69
2023/04/28 01:39:10;;;;;;;;;;;10.90;99.90;;;11.23;61.11;101033.56;5088082;28;20043;-69
2023/04/28 01:41:42;;;;;;;19.92;12.57;;;11.00;99.90;;;11.05;61.23;101009.84;5096045;28;20318;-69
2023/04/28 01:44:11;;;;;;;13.95;11.65;;;11.00;99.90;;;10.90;62.29;101040.78;5113972;28;20050;-69
2023/04/28 01:46:41;;;;;;;15.07;12.10;;;10.70;99.90;;;10.95;62.27;101022.25;5114225;28;20043;-69
2023/04/28 01:49:09;;;;;;;16.35;12.13;;;10.70;99.90;;;10.78;62.96;101019.63;5084078;28;20055;-69
2023/04/28 01:51:39;;;;;;;17.35;11.88;;;10.60;99.90;;;11.11;61.69;101012.47;5113679;28;20071;-69
2023/04/28 01:54:08;;;;;;;22.10;12.25;;;10.70;99.90;;;10.85;61.78;100978.16;5110384;28;20039;-69
2023/04/28 01:56:37;;;;;;;14.00;12.20;;;10.80;99.90;;;10.77;62.73;101007.31;5095612;28;20043;-69
2023/04/28 01:59:06;;;;;;;16.15;12.10;;;10.60;99.90;;;10.73;62.94;101005.53;5087416;28;20071;-69
2023/04/28 02:01:35;;;;;;;14.57;11.70;;;10.50;99.90;;;10.69;63.61;101008.19;5095505;28;20097;-69
2023/04/28 02:04:03;;;;;;;17.40;12.07;;;10.40;99.90;;;10.74;63.09;101011.72;5087311;28;20045;-69
2023/04/28 02:06:35;;;;;;;17.30;12.90;;;10.50;99.90;;;10.65;63.09;100999.38;5095568;28;20423;-69
2023/04/28 02:09:03;;;;;;;19.08;12.48;;;10.50;99.90;;;10.77;62.95;101006.41;5083806;28;20048;-69
2023/04/28 02:11:34;;;;;;;18.20;11.88;;;10.50;99.90;;;10.64;63.05;100988.81;5083232;28;20374;-69
2023/04/28 02:14:02;;;;;;;17.15;11.85;;;10.40;99.90;;;10.39;63.54;100976.53;5113373;28;20039;-69
2023/04/28 02:16:33;;;;;;;18.80;12.73;;;10.30;99.90;;;10.50;63.93;100991.50;5095177;28;20050;-69
2023/04/28 02:19:01;;;;;;;;;;;10.30;99.90;;;10.32;65.34;100945.69;5087409;28;20039;-69
2023/04/28 02:21:29;;;;;;;17.13;13.20;;;10.20;99.90;;;10.49;64.66;100981.78;5113407;28;19955;-69
2023/04/28 02:23:58;;;;;;;18.15;12.23;;;10.30;99.90;;;9.96;64.59;100862.06;5113379;28;20039;-69
2023/04/28 02:26:26;;;;;;;18.48;12.30;;;10.30;99.90;;;10.46;64.15;100979.16;5113069;28;20040;-69
2023/04/28 02:28:55;;;;;;;22.77;12.50;;;10.30;99.90;;;10.69;64.46;100966.75;5086852;28;20047;-68
2023/04/28 02:31:23;;;;;;;20.15;12.45;;;10.40;99.90;;;10.12;63.61;100850.63;5113448;28;20469;-69
2023/04/28 02:33:55;;;;;;;15.60;12.52;;;10.50;99.90;;;10.72;63.63;100971.16;5090973;28;20051;-69
2023/04/28 02:36:24;;;;;;;17.95;12.95;;;10.40;99.90;;;10.74;64.29;100966.75;5113367;28;20062;-69
2023/04/28 02:38:52;;;;;;;18.02;13.50;;;10.40;99.90;;;10.88;64.14;100967.56;5094844;28;20046;-69
2023/04/28 02:41:21;;;;;;;20.45;13.15;;;10.60;99.90;;;10.84;64.03;100971.97;5094759;28;20097;-69
2023/04/28 02:43:50;;;;;;;19.55;13.38;;;10.60;99.90;;;11.03;64.37;100970.16;5086747;28;20052;-69
2023/04/28 02:46:18;;;;;;;15.90;12.38;;;10.70;99.90;;;11.15;63.23;100955.97;5095011;28;20051;-69
2023/04/28 02:48:47;;;;;;;15.50;12.45;;;10.90;99.90;;;11.10;63.78;100955.09;5112904;28;20123;-69
2023/04/28 02:51:16;;;;;;;17.10;13.25;;;10.80;99.90;;;11.25;63.12;100958.56;5113093;28;20047;-69
2023/04/28 02:53:45;;;;;;;16.00;12.10;;;11.00;99.90;;;11.11;63.46;100952.44;5083174;28;20378;-69
2023/04/28 02:56:13;;;;;;;17.30;12.30;;;10.90;99.90;;;11.17;63.06;100960.34;5090578;28;20051;-69
2023/04/28 02:58:42;;;;;;;15.82;12.32;;;10.90;99.90;;;11.01;64.45;100961.34;5082895;28;20409;-69
2023/04/28 03:01:10;;;;;;;17.38;12.57;;;10.80;99.90;;;11.00;64.36;100946.34;5086402;28;20101;-68
2023/04/28 03:03:39;;;;;;;15.82;12.80;;;10.70;99.90;;;11.00;64.96;100948.09;5113332;28;20362;-69
2023/04/28 03:06:07;;;;;;;16.60;12.85;;;10.70;99.90;;;10.73;66.01;100952.63;5094749;28;20465;-69
2023/04/28 03:08:37;;;;;;;20.85;13.40;;;10.50;99.90;;;10.60;65.79;100948.28;5094683;28;20082;-69
2023/04/28 03:11:05;;;;;;;19.30;13.13;;;10.40;99.90;;;10.44;65.68;100916.59;5086566;28;20048;-69
2023/04/28 03:13:34;;;;;;;17.88;13.77;;;10.30;99.90;;;10.53;65.81;100906.84;5112607;28;20067;-69
2023/04/28 03:16:04;;;;;;;18.70;13.13;;;10.40;99.90;;;10.63;66.45;100939.44;5112625;28;20032;-69
2023/04/28 03:18:32;;;;;;;18.88;14.13;;;10.30;99.90;;;10.61;66.74;100941.19;5091363;28;20046;-69
2023/04/28 03:21:01;;;;;;;17.38;13.60;;;10.40;99.90;;;10.35;66.84;100921.91;5082813;28;20067;-69
2023/04/28 03:23:29;;;;;;;20.88;13.38;;;10.30;99.90;;;10.41;66.97;100929.81;5112761;28;20036;-69
2023/04/28 03:25:59;;;;;;;18.15;13.98;;;10.20;99.90;;;10.33;67.59;100926.31;5094334;28;20044;-69
2023/04/28 03:28:28;;;;;;;21.70;13.27;;;10.10;99.90;;;10.45;67.65;100923.66;5086267;28;20508;-68
2023/04/28 03:30:59;;;;;;;21.48;13.68;;;10.10;99.90;;;10.43;68.21;100917.47;5094274;28;20104;-69
2023/04/28 03:33:28;;;;;;;20.27;14.05;;;10.10;99.90;;;10.31;68.01;100910.47;5112602;28;20048;-69
2023/04/28 03:35:57;;;;;;;20.58;13.57;;;10.10;99.90;;;10.33;67.58;100910.47;5094101;28;20075;-69
2023/04/28 03:38:26;;;;;;;21.13;13.18;;;10.10;99.90;;;10.38;67.84;100904.25;5082457;28;20051;-69
2023/04/28 03:40:55;;;;;;;22.77;14.35;;;10.10;99.90;;;10.49;67.93;100898.97;5108293;28;20066;-69
2023/04/28 03:43:27;;;;;;;19.00;14.23;;;10.20;99.90;;;10.33;68.58;100897.25;5112799;28;20047;-69
2023/04/28 03:46:08;;;;;;;19.52;13.93;;;10.10;99.90;;;10.15;68.53;100884.06;5094077;28;20146;-68
2023/04/28 03:48:37;;;;;;;17.75;13.32;;;10.00;99.90;;;10.24;69.43;100881.41;5090799;28;20040;-69
2023/04/28 03:51:06;;;;;;;24.25;14.13;;;9.90;99.90;;;10.07;69.12;100869.94;5115290;28;20062;-68
2023/04/28 03:53:34;;;;;;;19.17;14.23;;;9.90;99.90;;;10.33;69.72;100873.44;5091175;28;20512;-69
2023/04/28 03:56:02;;;;;;;20.00;13.85;;;10.00;99.90;;;10.22;69.23;100872.59;5098016;28;20463;-68
2023/04/28 03:58:32;;;;;;;20.40;14.93;;;10.00;99.90;;;10.24;69.35;100882.28;5089836;28;20058;-69
2023/04/28 04:01:01;;;;;;;20.85;14.77;;;10.00;99.90;;;10.11;69.40;100869.09;5097879;28;20396;-69
2023/04/28 04:03:29;;;;;;;23.30;15.23;;;9.90;99.90;;;10.08;70.43;100856.75;5115879;28;20047;-69
2023/04/28 04:05:59;;;;;;;20.83;14.98;;;9.90;99.90;;;9.90;71.09;100835.66;5097861;28;20048;-69
2023/04/28 04:08:28;;;;;;;22.83;14.35;;;9.70;99.90;;;9.84;71.45;100823.34;5116163;28;20093;-69
2023/04/28 04:10:56;;;;;;;23.27;15.18;;;9.70;99.90;;;9.86;71.43;100849.75;5116446;28;20055;-69
2023/04/28 04:13:24;;;;;;;22.20;15.07;;;9.60;99.90;;;9.96;71.59;100847.09;5085730;28;20048;-69
2023/04/28 04:15:54;;;;;;;23.67;15.80;;;9.60;99.90;;;10.15;71.40;100860.28;5077434;28;20057;-69
2023/04/28 04:18:25;;;;;;;22.27;14.73;;;9.80;99.90;;;10.47;70.97;100869.00;5097366;28;20071;-69
2023/04/28 04:21:19;;;;;;;21.92;14.70;;;10.10;99.90;;;10.57;69.79;100865.41;5092943;28;20047;-69
2023/04/28 04:23:50;;;;;;;19.95;14.50;;;10.30;99.90;;;10.04;69.81;100786.31;5097615;28;20123;-69
2023/04/28 04:26:19;;;;;;;18.83;14.60;;;10.30;99.90;;;10.60;69.84;100870.69;5097142;28;20049;-69
2023/04/28 04:28:49;;;;;;;20.70;16.27;;;10.40;99.90;;;10.58;69.95;100872.47;5097456;28;20057;-69
2023/04/28 04:31:19;;;;;;;19.65;15.50;;;10.40;99.90;;;10.36;70.75;100855.81;5097239;28;20055;-69
2023/04/28 04:33:48;;;;;;;26.83;15.73;;;10.20;99.90;;;10.22;71.09;100856.75;5085637;28;20055;-69
2023/04/28 04:36:18;;;;;;;21.63;16.63;;;10.00;99.90;;;10.33;71.81;100855.81;5085304;28;20571;-69
2023/04/28 04:38:47;;;;;;;21.63;16.40;;;10.00;99.90;;;10.42;71.62;100862.81;5089148;28;20077;-69
2023/04/28 04:41:19;;;;;;;22.75;16.25;;;10.10;99.90;;;10.40;71.47;100865.47;5097424;28;20044;-69
2023/04/28 04:43:48;;;;;;;21.25;16.30;;;10.10;99.90;;;10.58;71.30;100872.47;5088994;28;20054;-69
2023/04/28 04:46:19;;;;;;;21.88;15.57;;;10.30;99.90;;;10.94;70.88;100866.13;5097193;28;20837;-70
2023/04/28 04:48:48;;;;;;;19.45;15.15;;;10.50;99.90;;;11.03;70.88;100869.59;5089008;28;20051;-69
2023/04/28 04:51:17;;;;;;;23.60;16.27;;;10.70;99.90;;;11.24;71.00;100861.50;5093744;28;20079;-69
2023/04/28 04:53:45;;;;;;;20.85;16.67;;;10.90;99.90;;;11.17;71.37;100851.81;5089930;28;20047;-71
2023/04/28 04:56:14;;;;;;;21.27;16.23;;;10.90;99.90;;;10.93;72.95;100865.22;5085111;28;20048;-69
2023/04/28 04:58:44;;;;;;;24.23;17.55;;;10.70;99.90;;;10.64;74.05;100862.75;5088698;28;20082;-69
2023/04/28 05:01:46;;;;;;;22.17;16.40;;;10.50;99.90;;;10.69;74.58;100865.34;5101430;28;20146;-70
2023/04/28 05:04:15;;;;;;;22.80;16.77;;;10.40;99.90;;;10.20;74.24;100742.22;5115212;28;20118;-70
2023/04/28 05:06:44;;;;;;;25.80;17.58;;;10.60;99.90;;;11.09;74.01;100872.16;5115319;28;20293;-69
2023/04/28 05:09:12;;;;;;;22.92;17.08;;;10.70;99.90;;;10.90;74.12;100839.66;5096455;28;20085;-70
2023/04/28 05:11:41;;;;;;;23.65;17.50;;;10.80;99.90;;;10.98;76.19;100858.13;5115163;28;20126;-70
2023/04/28 05:14:09;;;;;;;22.13;17.30;;;10.70;99.90;;;11.05;77.48;100872.22;5089361;28;20048;-69
2023/04/28 05:16:40;;;;;;;26.00;18.15;;;10.70;99.90;;;11.00;77.70;100866.94;5096455;28;20066;-70
2023/04/28 05:19:13;;;;;;;25.48;17.95;;;10.80;99.90;;;10.36;80.43;100854.91;5088366;28;20561;-70
2023/04/28 05:21:42;;;;;;;26.58;18.52;;;10.30;99.90;;;9.64;84.10;100843.63;5096496;28;20159;-70
2023/04/28 05:24:10;;;;;;;26.75;18.65;;;9.60;99.90;;;9.26;87.71;100831.31;5088180;28;20043;-69
2023/04/28 05:26:38;;;;;;;25.30;20.63;;;9.10;99.90;;;9.07;90.13;100827.78;5096288;28;20044;-69
2023/04/28 05:29:09;;;;;;;30.65;20.95;;;8.80;99.90;;;9.21;91.85;100826.06;5096313;28;20101;-69
2023/04/28 05:31:38;;;;;;;26.30;19.75;;;8.90;99.90;;;9.30;92.13;100833.06;5088685;28;20047;-69
2023/04/28 05:34:06;;;;;;;29.42;21.17;;;8.90;99.90;;;9.31;92.61;100835.72;5092667;28;20451;-69
2023/04/28 05:36:36;;;;;;;28.85;20.38;;;9.00;99.90;;;9.22;93.00;100832.19;5114204;28;20402;-69
2023/04/28 05:39:08;;;;;;;29.90;21.98;;;8.90;99.90;;;9.08;94.07;100826.91;5088052;28;20055;-69
2023/04/28 05:41:36;;;;;;;32.83;21.55;;;8.80;99.90;;;9.04;95.23;100833.06;5095825;28;20043;-68
2023/04/28 05:44:06;;;;;;;32.50;22.40;;;8.80;99.90;;;8.93;95.70;100816.34;5096043;28;20036;-69
2023/04/28 05:46:34;;;;;;;29.13;22.15;;;8.70;99.90;;;8.91;96.75;100823.38;5095840;28;20047;-69
2023/04/28 05:49:03;;;;;;;30.80;21.77;;;8.70;99.90;;;8.85;97.02;100808.41;5084282;28;20048;-69
2023/04/28 05:51:37;;;;;;;29.83;22.58;;;8.70;99.90;;;8.98;97.96;100828.66;5083989;28;20071;-69
2023/04/28 05:54:06;;;;;;;37.88;24.42;;;8.70;99.90;;;9.06;98.45;100828.66;5095886;28;20511;-69
2023/04/28 05:56:41;;;;;;;34.63;23.65;;;8.80;99.90;;;9.10;98.14;100825.16;5095945;28;20063;-69
2023/04/28 05:59:09;;;;;;;33.05;22.73;;;8.80;99.90;;;9.27;98.93;100815.47;5087729;28;20073;-70
2023/04/28 06:01:38;;;;;;;31.95;23.23;;;8.90;99.90;;;9.15;98.07;100783.84;5114390;28;20170;-69
2023/04/28 06:04:07;;;;;;;34.97;22.80;;;9.10;99.90;;;9.60;98.22;100833.06;5084106;28;20085;-69
2023/04/28 06:06:38;;;;;;;35.35;23.45;;;9.20;99.90;;;9.69;98.46;100827.78;5109964;28;20039;-69
2023/04/28 06:09:06;;;;;;;31.90;22.58;;;9.40;99.90;;;9.89;97.91;100837.41;5114090;28;20036;-69
2023/04/28 06:11:35;;;;;;;34.15;24.52;;;9.50;99.90;;;9.75;97.77;100823.38;5087500;28;20420;-69
2023/04/28 06:14:03;;;;;;;33.38;24.00;;;9.50;99.90;;;9.79;99.14;100835.66;5113646;28;20051;-70
2023/04/28 06:16:31;;;;;;;33.05;23.90;;;9.50;99.90;;;9.80;100.00;100821.59;5113554;28;20142;-70
2023/04/28 06:19:00;;;;;;;35.00;23.92;;;9.50;99.90;;;9.99;100.00;100828.56;5095279;28;20146;-70
2023/04/28 06:21:31;;;;;;;32.28;24.15;;;9.60;99.90;;;9.98;100.00;100824.19;5095438;28;20500;-70
2023/04/28 06:24:01;;;;;;;34.47;24.75;;;9.60;99.90;;;9.91;100.00;100819.78;5095163;28;20101;-69
2023/04/28 06:26:29;;;;;;;35.05;25.60;;;9.60;99.90;;;9.98;100.00;100823.31;5083311;28;20040;-70
2023/04/28 06:28:58;;;;;;;34.65;26.30;;;9.60;99.90;;;9.90;100.00;100817.16;5075241;28;20134;-71
2023/04/28 06:31:27;;;;;;;38.53;26.65;;;9.60;99.90;;;9.92;100.00;100818.03;5095273;28;20047;-73
2023/04/28 06:33:57;;;;;;;34.53;26.40;;;9.60;99.90;;;9.98;100.00;100808.34;5113437;28;20066;-72
2023/04/28 06:36:25;;;;;;;37.58;26.52;;;9.70;99.90;;;10.22;100.00;100822.38;5095226;28;20477;-72
2023/04/28 06:38:54;;;;;;;41.58;28.52;;;9.80;99.90;;;10.15;100.00;100820.63;5112993;28;20371;-73
2023/04/28 06:41:24;;;;;;;40.13;27.65;;;9.90;99.90;;;10.07;100.00;100791.56;5113291;28;20430;-73
2023/04/28 06:43:53;;;;;;;40.25;27.60;;;9.90;99.90;;;10.39;100.00;100802.94;5087330;28;20083;-73
2023/04/28 06:46:26;;;;;;;48.50;30.65;;;10.10;99.90;;;10.39;100.00;100821.44;5087549;28;20044;-73
2023/04/28 06:48:54;;;;;;;44.25;29.92;;;10.10;99.90;;;10.44;100.00;100818.75;5113205;28;20071;-71
2023/04/28 06:51:23;;;;;;;40.75;28.23;;;10.20;99.90;;;10.51;100.00;100829.28;5112745;28;20051;-74
2023/04/28 06:53:53;;;;;;;44.72;29.70;;;10.20;99.90;;;10.46;100.00;100824.91;5095224;28;20051;-73
2023/04/28 06:56:27;;;;;;;40.90;30.25;;;10.20;99.90;;;10.66;100.00;100818.66;5113033;28;20047;-72
2023/04/28 06:59:02;;;;;;;43.42;29.88;;;10.30;99.90;;;10.77;100.00;100822.09;5112959;28;20043;-71
2023/04/28 07:01:33;;;;;;;43.75;31.35;;;10.40;99.90;;;10.84;100.00;100829.09;5109400;28;20048;-73
2023/04/28 07:04:08;;;;;;;46.47;30.25;;;10.60;99.90;;;10.90;100.00;100817.59;5112846;28;20040;-70
2023/04/28 07:06:39;;;;;;;45.28;30.95;;;10.60;99.90;;;10.84;100.00;100823.81;5094951;28;20519;-74
2023/04/28 07:09:08;;;;;;;44.15;31.88;;;10.60;99.90;;;10.72;100.00;100823.88;5112591;28;20396;-72
2023/04/28 07:11:38;;;;;;;48.90;32.97;;;10.50;99.90;;;10.78;100.00;100831.78;5112504;28;20043;-73
2023/04/28 07:14:07;;;;;;;46.47;31.42;;;10.50;99.90;;;10.73;100.00;100820.38;5109099;28;20047;-71
2023/04/28 07:16:35;;;;;;;45.85;32.72;;;10.50;99.90;;;10.63;100.00;100809.81;5112923;28;20370;-74
2023/04/28 07:19:04;;;;;;;47.13;32.33;;;10.30;99.90;;;10.65;100.00;100813.34;5112559;28;20051;-74
2023/04/28 07:21:33;;;;;;;49.17;34.97;;;10.30;99.90;;;10.50;100.00;100816.06;5112368;28;20346;-77
2023/04/28 07:24:02;;;;;;;52.78;34.75;;;10.20;99.90;;;10.72;100.00;100808.00;5111931;28;20127;-73
2023/04/28 07:26:30;;;;;;;54.92;36.40;;;10.30;99.90;;;10.73;100.00;100806.25;5112411;28;20135;-72
2023/04/28 07:29:00;;;;;;;50.17;34.78;;;10.40;99.90;;;10.70;100.00;100809.78;5112362;28;20047;-70
2023/04/28 07:31:29;;;;;;;50.90;35.80;;;10.40;99.90;;;10.82;100.00;100816.75;5112332;28;20039;-70
2023/04/28 07:33:57;;;;;;;53.70;36.42;;;10.40;99.90;;;10.91;100.00;100819.38;5112635;28;20047;-70
2023/04/28 07:36:26;;;;;;;46.83;35.05;;;10.50;99.90;;;10.90;100.00;100812.31;5108142;28;20435;-70
2023/04/28 07:38:54;;;;;;;51.10;35.85;;;10.60;99.90;;;10.90;100.00;100820.25;5090540;28;20040;-69
2023/04/28 07:41:23;;;;;;;51.00;36.38;;;10.60;99.90;;;11.07;100.00;100809.56;5112255;28;20048;-71
2023/04/28 07:43:51;;;;;;;47.92;36.20;;;10.70;99.90;;;10.98;100.00;100799.00;5085950;28;20067;-71
2023/04/28 07:46:22;;;;;;;49.20;34.35;;;10.80;99.90;;;11.01;100.00;100793.72;5112123;28;20110;-70
2023/04/28 07:48:51;;;;;;;49.58;36.38;;;10.80;99.90;;;11.17;100.00;100816.53;5112188;28;20109;-69
2023/04/28 07:51:19;;;;;;;52.17;38.70;;;10.80;99.90;;;11.26;100.00;100814.69;5112302;28;20058;-69
2023/04/28 07:53:47;;;;;;;51.55;37.92;;;10.90;99.90;;;11.35;100.00;100813.72;5112034;28;20036;-71
2023/04/28 07:56:16;;;;;;;47.78;36.35;;;11.00;99.90;;;11.33;100.00;100812.84;5111931;28;20425;-71
2023/04/28 07:58:44;;;;;;;50.28;37.55;;;11.00;99.90;;;11.58;100.00;100825.00;5112196;28;20035;-70
2023/04/28 08:01:13;;;;;;;55.45;39.05;;;11.20;99.90;;;11.10;100.00;100723.06;5108287;28;20075;-70
2023/04/28 08:03:42;;;;;;;52.65;38.20;;;11.30;99.90;;;11.64;100.00;100823.19;5112320;28;20046;-71
2023/04/28 08:06:12;;;;;;;58.58;40.15;;;11.30;99.90;;;11.69;100.00;100823.19;5112474;28;20142;-73
2023/04/28 08:08:41;;;;;;;57.20;38.47;;;11.40;99.90;;;11.75;100.00;100810.72;5112158;28;20051;-73
2023/04/28 08:11:09;;;;;;;49.50;37.38;;;11.50;99.90;;;11.83;100.00;100804.50;5112328;28;20036;-72
2023/04/28 08:13:38;;;;;;;58.05;42.13;;;11.60;99.90;;;12.02;100.00;100821.94;5111787;28;20062;-73
2023/04/28 08:16:07;;;;;;;53.60;41.47;;;11.70;99.90;;;12.21;100.00;100826.16;5085672;28;20040;-73
2023/04/28 08:18:36;;;;;;;59.25;43.55;;;11.90;99.90;;;12.30;100.00;100828.69;5111728;28;20184;-73
2023/04/28 08:21:06;;;;;;;59.30;45.13;;;12.00;99.90;;;12.31;100.00;100827.78;5112425;28;20046;-72
2023/04/28 08:23:35;;;;;;;55.97;44.75;;;12.10;99.90;;;12.46;100.00;100823.19;5108142;28;20442;-72
2023/04/28 08:26:04;;;;;;;57.60;44.35;;;12.20;99.90;;;12.65;100.00;100819.38;5112013;28;20050;-72
2023/04/28 08:28:33;;;;;;;55.67;44.30;;;12.40;99.90;;;12.81;100.00;100830.66;5112381;28;20217;-74
2023/04/28 08:31:04;;;;;;;55.17;43.78;;;12.50;99.90;;;12.91;100.00;100818.97;5111946;28;20043;-73
2023/04/28 08:33:32;;;;;;;;;;;12.60;99.90;;;13.07;100.00;100819.66;5112311;28;20411;-71
2023/04/28 08:36:01;;;;;;;55.22;41.33;;;12.80;99.90;;;13.06;100.00;100824.13;5094715;28;19930;-70
2023/04/28 08:38:31;;;;;;;54.95;43.92;;;12.80;99.90;;;13.19;100.00;100815.06;5115162;28;20044;-71
2023/04/28 08:40:59;;;;;;;58.07;44.73;;;12.90;99.90;;;13.26;100.00;100819.34;5115825;28;20040;-73
2023/04/28 08:43:29;;;;;;;53.15;41.65;;;13.00;99.90;;;13.28;100.00;100816.66;5111285;28;20369;-72
2023/04/28 08:45:59;;;;;;;55.42;43.20;;;13.10;99.90;;;13.29;100.00;100814.00;5115371;28;20066;-70
2023/04/28 08:48:29;;;;;;;61.50;44.58;;;13.10;99.90;;;13.40;100.00;100819.13;5115242;28;20108;-71
2023/04/28 08:50:58;;;;;;;59.07;44.57;;;13.10;99.90;;;13.46;100.00;100822.56;5096978;28;20474;-71
2023/04/28 08:53:27;;;;;;;56.50;43.03;;;13.20;99.90;;;13.53;100.00;100810.94;5115540;28;20608;-71
2023/04/28 08:55:58;;;;;;;53.10;42.63;;;13.20;99.90;;;13.61;100.00;100808.13;5115312;28;20385;-71
2023/04/28 08:58:28;;;;;;;50.72;39.45;;;13.30;99.90;;;13.64;100.00;100809.88;5115119;28;20075;-71
2023/04/28 09:00:57;;;;;;;49.80;39.53;;;13.30;99.90;;;13.77;100.00;100808.72;5092907;28;20504;-71
2023/04/28 09:03:27;;;;;;;44.17;36.78;;;13.40;99.90;;;13.80;100.00;100803.38;5115120;28;20116;-70
2023/04/28 09:05:58;;;;;;;46.10;35.88;;;13.50;99.90;;;13.88;100.00;100806.78;5115037;28;20108;-69
2023/04/28 09:08:27;;;;;;;40.90;34.58;;;13.60;99.90;;;13.91;100.00;100807.59;5115018;28;20105;-68
2023/04/28 09:11:12;;;;;;;43.83;37.45;;;13.60;99.90;;;13.94;100.00;100799.53;5115770;28;20112;-72
2023/04/28 09:13:41;;;;;;;45.63;35.95;;;13.60;99.90;;;14.05;100.00;100791.38;5097326;28;20059;-72
2023/04/28 09:16:10;;;;;;;37.70;31.98;;;13.70;99.90;;;14.16;100.00;100798.22;5115537;28;20043;-69
2023/04/28 09:18:38;;;;;;;30.35;25.30;;;13.80;99.90;;;14.17;100.00;100791.09;5115072;28;20085;-70
2023/04/28 09:21:08;;;;;;;22.85;20.00;;;13.90;99.90;;;14.17;100.00;100799.97;5115087;28;20078;-70
2023/04/28 09:23:48;;;;;;;22.33;20.00;;;13.80;99.90;;;14.24;100.00;100806.03;5096418;28;20081;-69
2023/04/28 09:26:19;;;;;;;19.60;16.98;;;13.90;99.90;;;14.25;100.00;100802.47;5090657;28;20073;-72
2023/04/28 09:28:48;;;;;;;17.50;15.60;;;13.90;99.90;;;14.31;100.00;100797.06;5114706;28;20040;-71
2023/04/28 09:31:24;;;;;;;14.40;12.90;;;14.00;99.90;;;14.41;100.00;100801.28;5114499;28;20444;-72
2023/04/28 09:33:59;;;;;;;11.82;9.68;;;14.00;99.90;;;14.31;100.00;100783.75;5114546;28;20043;-71
2023/04/28 09:36:29;;;;;;;9.77;7.90;;;14.10;99.90;;;14.43;100.00;100805.66;5111020;28;20051;-72
2023/04/28 09:38:59;;;;;;;8.15;7.35;;;14.10;99.90;;;14.45;100.00;100802.97;5114724;28;20043;-72
2023/04/28 09:41:39;;;;;;;8.90;7.07;;;14.10;99.90;;;14.58;100.00;100801.78;5114279;28;20043;-72
2023/04/28 09:44:17;;;;;;;9.02;6.60;;;14.20;99.90;;;14.55;100.00;100799.22;5114329;28;20473;-72
2023/04/28 09:46:47;;;;;;;8.27;6.40;;;14.20;99.90;;;14.68;100.00;100811.34;5085543;28;20040;-72
2023/04/28 09:49:16;;;;;;;10.50;6.68;;;14.30;99.90;;;14.74;100.00;100813.84;5113539;28;20108;-72
2023/04/28 09:51:44;;;;;;;9.85;7.22;;;14.30;99.90;;;14.66;100.00;100810.47;5113850;28;20067;-72
2023/04/28 09:54:13;;;;;;;11.25;7.40;;;14.30;99.90;;;14.61;100.00;100815.06;5113983;28;20488;-72
2023/04/28 09:56:46;;;;;;;12.73;7.90;;;14.30;99.90;;;14.58;100.00;100817.75;5114054;28;20047;-72
2023/04/28 09:59:14;;;;;;;12.93;8.80;;;14.20;99.90;;;14.53;100.00;100819.66;5076219;28;20135;-72
2023/04/28 10:01:45;;;;;;;15.48;9.32;;;14.20;99.90;;;14.52;100.00;100817.88;5096084;28;20131;-72
2023/04/28 10:04:14;;;;;;;20.25;10.30;;;14.10;99.90;;;14.39;100.00;100816.41;5113951;28;20043;-72
2023/04/28 10:06:44;;;;;;;14.48;9.02;;;14.00;99.90;;;14.34;100.00;100821.81;5113820;28;20070;-72
2023/04/28 10:09:13;;;;;;;16.17;8.80;;;14.00;99.90;;;14.40;100.00;100821.69;5087461;28;20070;-71
2023/04/28 10:11:43;;;;;;;18.05;10.50;;;14.00;99.90;;;14.39;100.00;100824.38;5095528;28;20079;-72